sensor_id;sensor_type;location;lat;lon;timestamp;pressure;altitude;pressure_sealevel;temperature;humidity
60087;BME280;45960;53.630;55.972;2023-03-05T00:00:04;98795.19;;;-1.56;93.28
60087;BME280;45960;53.630;55.972;2023-03-05T00:01:20;98783.91;;;-1.59;93.39
60087;BME280;45960;53.630;55.972;2023-03-05T00:02:24;98779.59;;;-1.60;93.44
60087;BME280;45960;53.630;55.972;2023-03-05T00:03:25;98788.09;;;-1.54;93.51
60087;BME280;45960;53.630;55.972;2023-03-05T00:04:26;98795.84;;;-1.51;93.33
60087;BME280;45960;53.630;55.972;2023-03-05T00:05:27;98794.81;;;-1.47;93.36
60087;BME280;45960;53.630;55.972;2023-03-05T00:06:29;98792.19;;;-1.47;93.17
60087;BME280;45960;53.630;55.972;2023-03-05T00:07:31;98792.31;;;-1.50;93.21
60087;BME280;45960;53.630;55.972;2023-03-05T00:08:32;98789.03;;;-1.55;93.17
60087;BME280;45960;53.630;55.972;2023-03-05T00:09:34;98787.47;;;-1.60;93.34
60087;BME280;45960;53.630;55.972;2023-03-05T00:10:34;98795.38;;;-1.61;93.45
60087;BME280;45960;53.630;55.972;2023-03-05T00:11:36;98797.06;;;-1.60;93.42
60087;BME280;45960;53.630;55.972;2023-03-05T00:12:37;98789.41;;;-1.65;93.50
60087;BME280;45960;53.630;55.972;2023-03-05T00:13:38;98791.94;;;-1.63;93.58
60087;BME280;45960;53.630;55.972;2023-03-05T00:14:40;98792.78;;;-1.63;93.45
60087;BME280;45960;53.630;55.972;2023-03-05T00:15:41;98790.97;;;-1.61;93.70
60087;BME280;45960;53.630;55.972;2023-03-05T00:16:42;98787.47;;;-1.60;93.59
60087;BME280;45960;53.630;55.972;2023-03-05T00:17:43;98789.03;;;-1.55;93.62
60087;BME280;45960;53.630;55.972;2023-03-05T00:18:45;98792.44;;;-1.53;93.61
60087;BME280;45960;53.630;55.972;2023-03-05T00:19:46;98794.28;;;-1.55;93.39
60087;BME280;45960;53.630;55.972;2023-03-05T00:20:47;98799.38;;;-1.52;93.66
60087;BME280;45960;53.630;55.972;2023-03-05T00:21:48;98793.34;;;-1.54;93.53
60087;BME280;45960;53.630;55.972;2023-03-05T00:22:49;98794.16;;;-1.52;93.67
60087;BME280;45960;53.630;55.972;2023-03-05T00:23:51;98790.69;;;-1.53;93.56
60087;BME280;45960;53.630;55.972;2023-03-05T00:24:53;98790.72;;;-1.54;93.47
60087;BME280;45960;53.630;55.972;2023-03-05T00:25:54;98796.75;;;-1.52;93.52
60087;BME280;45960;53.630;55.972;2023-03-05T00:26:55;98796.84;;;-1.54;93.44
60087;BME280;45960;53.630;55.972;2023-03-05T00:27:57;98791.59;;;-1.54;93.30
60087;BME280;45960;53.630;55.972;2023-03-05T00:28:59;98789.03;;;-1.55;93.62
60087;BME280;45960;53.630;55.972;2023-03-05T00:30:00;98794.28;;;-1.55;93.65
60087;BME280;45960;53.630;55.972;2023-03-05T00:31:01;98799.38;;;-1.52;93.75
60087;BME280;45960;53.630;55.972;2023-03-05T00:32:02;98807.19;;;-1.51;93.78
60087;BME280;45960;53.630;55.972;2023-03-05T00:33:03;98797.56;;;-1.50;93.76
60087;BME280;45960;53.630;55.972;2023-03-05T00:34:08;98793.88;;;-1.46;93.70
60087;BME280;45960;53.630;55.972;2023-03-05T00:35:09;98799.00;;;-1.43;93.62
60087;BME280;45960;53.630;55.972;2023-03-05T00:36:10;98800.59;;;-1.39;93.71
60087;BME280;45960;53.630;55.972;2023-03-05T00:37:12;98804.06;;;-1.39;93.44
60087;BME280;45960;53.630;55.972;2023-03-05T00:38:13;98800.59;;;-1.39;93.44
60087;BME280;45960;53.630;55.972;2023-03-05T00:39:14;98797.06;;;-1.38;93.55
60087;BME280;45960;53.630;55.972;2023-03-05T00:40:16;98791.78;;;-1.37;93.59
60087;BME280;45960;53.630;55.972;2023-03-05T00:41:17;98792.44;;;-1.31;93.25
60087;BME280;45960;53.630;55.972;2023-03-05T00:42:18;98789.75;;;-1.30;93.46
60087;BME280;45960;53.630;55.972;2023-03-05T00:43:19;98790.53;;;-1.28;93.24
60087;BME280;45960;53.630;55.972;2023-03-05T00:44:20;98797.47;;;-1.27;93.18
60087;BME280;45960;53.630;55.972;2023-03-05T00:45:21;98790.47;;;-1.26;93.09
60087;BME280;45960;53.630;55.972;2023-03-05T00:46:22;98796.44;;;-1.23;93.22
60087;BME280;45960;53.630;55.972;2023-03-05T00:47:23;98787.66;;;-1.22;92.94
60087;BME280;45960;53.630;55.972;2023-03-05T00:48:25;98792.91;;;-1.22;92.93
60087;BME280;45960;53.630;55.972;2023-03-05T00:49:26;98791.09;;;-1.20;92.82
60087;BME280;45960;53.630;55.972;2023-03-05T00:50:27;98796.31;;;-1.20;92.74
60087;BME280;45960;53.630;55.972;2023-03-05T00:51:28;98800.59;;;-1.17;92.83
60087;BME280;45960;53.630;55.972;2023-03-05T00:52:29;98799.59;;;-1.15;92.96
60087;BME280;45960;53.630;55.972;2023-03-05T00:53:30;98790.81;;;-1.14;92.80
60087;BME280;45960;53.630;55.972;2023-03-05T00:54:31;98800.38;;;-1.13;92.78
60087;BME280;45960;53.630;55.972;2023-03-05T00:55:32;98803.06;;;-1.14;92.86
60087;BME280;45960;53.630;55.972;2023-03-05T00:56:35;98797.00;;;-1.15;92.81
60087;BME280;45960;53.630;55.972;2023-03-05T00:57:36;98798.00;;;-1.19;92.79
60087;BME280;45960;53.630;55.972;2023-03-05T00:58:38;98806.53;;;-1.14;92.70
60087;BME280;45960;53.630;55.972;2023-03-05T00:59:39;98803.00;;;-1.13;92.34
60087;BME280;45960;53.630;55.972;2023-03-05T01:00:40;98796.06;;;-1.14;92.77
60087;BME280;45960;53.630;55.972;2023-03-05T01:01:41;98804.72;;;-1.11;92.83
60087;BME280;45960;53.630;55.972;2023-03-05T01:02:42;98800.25;;;-1.09;92.64
60087;BME280;45960;53.630;55.972;2023-03-05T01:03:43;98799.34;;;-1.08;92.53
60087;BME280;45960;53.630;55.972;2023-03-05T01:04:48;98799.22;;;-1.05;92.61
60087;BME280;45960;53.630;55.972;2023-03-05T01:05:49;98807.88;;;-1.03;92.67
60087;BME280;45960;53.630;55.972;2023-03-05T01:06:50;98799.09;;;-1.02;92.63
60087;BME280;45960;53.630;55.972;2023-03-05T01:07:52;98806.94;;;-1.02;92.39
60087;BME280;45960;53.630;55.972;2023-03-05T01:08:53;98800.78;;;-1.01;92.59
60087;BME280;45960;53.630;55.972;2023-03-05T01:09:56;98807.75;;;-1.00;92.56
60087;BME280;45960;53.630;55.972;2023-03-05T01:10:57;98809.56;;;-1.02;92.48
60087;BME280;45960;53.630;55.972;2023-03-05T01:11:58;98812.25;;;-1.04;92.35
60087;BME280;45960;53.630;55.972;2023-03-05T01:13:00;98812.19;;;-1.02;92.57
60087;BME280;45960;53.630;55.972;2023-03-05T01:14:01;98814.81;;;-1.02;92.49
60087;BME280;45960;53.630;55.972;2023-03-05T01:15:04;98813.03;;;-1.02;92.61
60087;BME280;45960;53.630;55.972;2023-03-05T01:16:06;98818.25;;;-1.00;92.42
60087;BME280;45960;53.630;55.972;2023-03-05T01:17:07;98812.06;;;-0.99;92.37
60087;BME280;45960;53.630;55.972;2023-03-05T01:18:08;98812.06;;;-0.99;92.61
60087;BME280;45960;53.630;55.972;2023-03-05T01:19:10;98806.91;;;-1.01;92.48
60087;BME280;45960;53.630;55.972;2023-03-05T01:20:13;98807.75;;;-1.00;92.45
60087;BME280;45960;53.630;55.972;2023-03-05T01:21:14;98812.88;;;-0.97;92.58
60087;BME280;45960;53.630;55.972;2023-03-05T01:22:15;98814.56;;;-0.96;92.48
60087;BME280;45960;53.630;55.972;2023-03-05T01:23:16;98807.50;;;-0.94;92.61
60087;BME280;45960;53.630;55.972;2023-03-05T01:24:17;98810.91;;;-0.92;92.66
60087;BME280;45960;53.630;55.972;2023-03-05T01:25:19;98816.16;;;-0.92;92.42
60087;BME280;45960;53.630;55.972;2023-03-05T01:26:20;98807.50;;;-0.94;92.80
60087;BME280;45960;53.630;55.972;2023-03-05T01:27:21;98824.91;;;-0.93;92.51
60087;BME280;45960;53.630;55.972;2023-03-05T01:28:22;98817.13;;;-0.95;92.33
60087;BME280;45960;53.630;55.972;2023-03-05T01:29:23;98811.03;;;-0.95;92.38
60087;BME280;45960;53.630;55.972;2023-03-05T01:30:24;98817.19;;;-0.96;92.47
60087;BME280;45960;53.630;55.972;2023-03-05T01:31:26;98821.53;;;-0.95;92.55
60087;BME280;45960;53.630;55.972;2023-03-05T01:32:27;98818.09;;;-0.97;92.73
60087;BME280;45960;53.630;55.972;2023-03-05T01:33:28;98812.06;;;-0.99;92.58
60087;BME280;45960;53.630;55.972;2023-03-05T01:34:29;98823.34;;;-0.97;92.68
60087;BME280;45960;53.630;55.972;2023-03-05T01:35:30;98826.03;;;-0.99;92.81
60087;BME280;45960;53.630;55.972;2023-03-05T01:36:31;98828.72;;;-1.00;92.95
60087;BME280;45960;53.630;55.972;2023-03-05T01:37:33;98827.00;;;-1.01;92.94
60087;BME280;45960;53.630;55.972;2023-03-05T01:38:34;98826.88;;;-0.98;93.10
60087;BME280;45960;53.630;55.972;2023-03-05T01:39:35;98825.13;;;-0.98;93.13
60087;BME280;45960;53.630;55.972;2023-03-05T01:40:36;98819.94;;;-0.99;93.29
60087;BME280;45960;53.630;55.972;2023-03-05T01:41:37;98814.63;;;-0.98;93.22
60087;BME280;45960;53.630;55.972;2023-03-05T01:42:38;98816.47;;;-1.00;93.29
60087;BME280;45960;53.630;55.972;2023-03-05T01:43:40;98813.00;;;-1.00;93.47
60087;BME280;45960;53.630;55.972;2023-03-05T01:46:22;98819.00;;;-0.98;93.62
60087;BME280;45960;53.630;55.972;2023-03-05T01:47:24;98817.19;;;-0.96;93.63
60087;BME280;45960;53.630;55.972;2023-03-05T01:48:25;98810.03;;;-0.93;93.49
60087;BME280;45960;53.630;55.972;2023-03-05T01:50:30;98813.44;;;-0.91;93.46
60087;BME280;45960;53.630;55.972;2023-03-05T01:51:37;98812.72;;;-0.94;93.43
60087;BME280;45960;53.630;55.972;2023-03-05T01:52:43;98811.03;;;-0.95;93.59
60087;BME280;45960;53.630;55.972;2023-03-05T01:53:45;98809.31;;;-0.96;93.63
60087;BME280;45960;53.630;55.972;2023-03-05T01:54:50;98816.16;;;-0.92;93.90
60087;BME280;45960;53.630;55.972;2023-03-05T01:55:53;98801.25;;;-0.92;93.89
60087;BME280;45960;53.630;55.972;2023-03-05T01:56:56;98808.91;;;-0.87;93.69
60087;BME280;45960;53.630;55.972;2023-03-05T01:58:10;98805.25;;;-0.83;93.94
60087;BME280;45960;53.630;55.972;2023-03-05T01:59:13;98803.50;;;-0.82;93.64
60087;BME280;45960;53.630;55.972;2023-03-05T02:00:21;98812.06;;;-0.79;93.75
60087;BME280;45960;53.630;55.972;2023-03-05T02:01:25;98809.53;;;-0.80;93.75
60087;BME280;45960;53.630;55.972;2023-03-05T02:02:26;98811.16;;;-0.78;93.53
60087;BME280;45960;53.630;55.972;2023-03-05T02:03:27;98810.25;;;-0.77;93.50
60087;BME280;45960;53.630;55.972;2023-03-05T02:04:37;98813.66;;;-0.75;93.42
60087;BME280;45960;53.630;55.972;2023-03-05T02:05:41;98808.41;;;-0.75;93.40
60087;BME280;45960;53.630;55.972;2023-03-05T02:06:46;98813.53;;;-0.72;93.53
60087;BME280;45960;53.630;55.972;2023-03-05T02:07:48;98814.38;;;-0.71;93.33
60087;BME280;45960;53.630;55.972;2023-03-05T02:08:49;98802.91;;;-0.69;93.56
60087;BME280;45960;53.630;55.972;2023-03-05T02:09:50;98806.31;;;-0.66;93.47
60087;BME280;45960;53.630;55.972;2023-03-05T02:10:53;98799.34;;;-0.68;93.30
60087;BME280;45960;53.630;55.972;2023-03-05T02:11:58;98804.59;;;-0.68;93.13
60087;BME280;45960;53.630;55.972;2023-03-05T02:13:01;98798.44;;;-0.66;93.13
60087;BME280;45960;53.630;55.972;2023-03-05T02:14:04;98792.41;;;-0.69;93.08
60087;BME280;45960;53.630;55.972;2023-03-05T02:15:08;98797.66;;;-0.69;92.98
60087;BME280;45960;53.630;55.972;2023-03-05T02:16:09;98796.59;;;-0.64;93.00
60087;BME280;45960;53.630;55.972;2023-03-05T02:17:11;98796.59;;;-0.64;92.94
60087;BME280;45960;53.630;55.972;2023-03-05T02:18:12;98793.97;;;-0.64;92.92
60087;BME280;45960;53.630;55.972;2023-03-05T02:19:14;98797.38;;;-0.62;92.72
60087;BME280;45960;53.630;55.972;2023-03-05T02:20:18;98797.53;;;-0.65;92.92
60087;BME280;45960;53.630;55.972;2023-03-05T02:21:28;98799.09;;;-0.61;92.80
60087;BME280;45960;53.630;55.972;2023-03-05T02:22:29;98792.00;;;-0.59;92.41
60087;BME280;45960;53.630;55.972;2023-03-05T02:23:32;98791.88;;;-0.56;92.99
60087;BME280;45960;53.630;55.972;2023-03-05T02:24:36;98792.78;;;-0.57;92.62
60087;BME280;45960;53.630;55.972;2023-03-05T02:25:37;98795.41;;;-0.57;92.57
60087;BME280;45960;53.630;55.972;2023-03-05T02:26:38;98795.41;;;-0.57;92.37
60087;BME280;45960;53.630;55.972;2023-03-05T02:27:39;98800.66;;;-0.57;92.63
60087;BME280;45960;53.630;55.972;2023-03-05T02:28:49;98798.19;;;-0.60;92.46
60087;BME280;45960;53.630;55.972;2023-03-05T02:29:52;98798.19;;;-0.60;92.80
60087;BME280;45960;53.630;55.972;2023-03-05T02:30:53;98797.25;;;-0.59;92.87
60087;BME280;45960;53.630;55.972;2023-03-05T02:31:54;98797.25;;;-0.59;92.69
60087;BME280;45960;53.630;55.972;2023-03-05T02:32:56;98803.44;;;-0.60;92.87
60087;BME280;45960;53.630;55.972;2023-03-05T02:33:57;98800.84;;;-0.62;92.74
60087;BME280;45960;53.630;55.972;2023-03-05T02:34:59;98797.38;;;-0.62;92.90
60087;BME280;45960;53.630;55.972;2023-03-05T02:36:01;98804.47;;;-0.64;93.00
60087;BME280;45960;53.630;55.972;2023-03-05T02:37:03;98802.63;;;-0.62;92.82
60087;BME280;45960;53.630;55.972;2023-03-05T02:38:06;98802.63;;;-0.62;92.87
60087;BME280;45960;53.630;55.972;2023-03-05T02:39:07;98806.06;;;-0.60;92.90
60087;BME280;45960;53.630;55.972;2023-03-05T02:40:11;98802.63;;;-0.62;93.03
60087;BME280;45960;53.630;55.972;2023-03-05T02:41:14;98804.34;;;-0.61;93.05
60087;BME280;45960;53.630;55.972;2023-03-05T02:42:16;98803.47;;;-0.62;92.96
60087;BME280;45960;53.630;55.972;2023-03-05T02:43:17;98800.94;;;-0.63;92.97
60087;BME280;45960;53.630;55.972;2023-03-05T02:44:18;98809.59;;;-0.61;93.11
60087;BME280;45960;53.630;55.972;2023-03-05T02:45:19;98807.75;;;-0.59;92.94
60087;BME280;45960;53.630;55.972;2023-03-05T02:46:21;98800.66;;;-0.57;92.87
60087;BME280;45960;53.630;55.972;2023-03-05T02:47:22;98792.84;;;-0.59;92.74
60087;BME280;45960;53.630;55.972;2023-03-05T02:48:23;98800.66;;;-0.57;92.85
60087;BME280;45960;53.630;55.972;2023-03-05T02:49:24;98798.84;;;-0.55;92.78
60087;BME280;45960;53.630;55.972;2023-03-05T02:50:26;98798.84;;;-0.55;92.55
60087;BME280;45960;53.630;55.972;2023-03-05T02:51:27;98799.72;;;-0.56;92.49
60087;BME280;45960;53.630;55.972;2023-03-05T02:52:30;98797.91;;;-0.54;92.55
60087;BME280;45960;53.630;55.972;2023-03-05T02:53:31;98798.69;;;-0.52;92.58
60087;BME280;45960;53.630;55.972;2023-03-05T02:54:32;98797.84;;;-0.53;92.52
60087;BME280;45960;53.630;55.972;2023-03-05T02:55:33;98805.63;;;-0.51;92.36
60087;BME280;45960;53.630;55.972;2023-03-05T02:56:35;98802.13;;;-0.50;92.50
60087;BME280;45960;53.630;55.972;2023-03-05T02:57:38;98803.00;;;-0.51;92.20
60087;BME280;45960;53.630;55.972;2023-03-05T02:58:39;98816.13;;;-0.51;92.46
60087;BME280;45960;53.630;55.972;2023-03-05T02:59:40;98808.25;;;-0.51;92.46
60087;BME280;45960;53.630;55.972;2023-03-05T03:00:41;98816.06;;;-0.50;92.41
60087;BME280;45960;53.630;55.972;2023-03-05T03:01:43;98819.56;;;-0.49;92.44
60087;BME280;45960;53.630;55.972;2023-03-05T03:02:44;98812.59;;;-0.50;92.46
60087;BME280;45960;53.630;55.972;2023-03-05T03:03:45;98808.13;;;-0.48;92.51
60087;BME280;45960;53.630;55.972;2023-03-05T03:04:46;98812.59;;;-0.50;92.57
60087;BME280;45960;53.630;55.972;2023-03-05T03:05:47;98813.38;;;-0.48;92.83
60087;BME280;45960;53.630;55.972;2023-03-05T03:06:48;98816.00;;;-0.48;92.64
60087;BME280;45960;53.630;55.972;2023-03-05T03:07:49;98811.53;;;-0.46;92.64
60087;BME280;45960;53.630;55.972;2023-03-05T03:08:50;98820.25;;;-0.46;92.58
60087;BME280;45960;53.630;55.972;2023-03-05T03:09:51;98818.47;;;-0.45;92.76
60087;BME280;45960;53.630;55.972;2023-03-05T03:10:52;98817.59;;;-0.44;92.77
60087;BME280;45960;53.630;55.972;2023-03-05T03:11:56;98824.53;;;-0.43;92.79
60087;BME280;45960;53.630;55.972;2023-03-05T03:12:57;98822.84;;;-0.44;92.91
60087;BME280;45960;53.630;55.972;2023-03-05T03:13:58;98815.84;;;-0.45;92.97
60087;BME280;45960;53.630;55.972;2023-03-05T03:15:00;98818.56;;;-0.47;93.03
60087;BME280;45960;53.630;55.972;2023-03-05T03:16:03;98822.88;;;-0.46;92.97
60087;BME280;45960;53.630;55.972;2023-03-05T03:17:06;98817.59;;;-0.44;93.05
60087;BME280;45960;53.630;55.972;2023-03-05T03:18:08;98824.66;;;-0.46;93.12
60087;BME280;45960;53.630;55.972;2023-03-05T03:19:09;98814.97;;;-0.44;93.30
60087;BME280;45960;53.630;55.972;2023-03-05T03:20:12;98821.09;;;-0.45;93.33
60087;BME280;45960;53.630;55.972;2023-03-05T03:21:21;98815.75;;;-0.42;93.42
60087;BME280;45960;53.630;55.972;2023-03-05T03:22:23;98817.38;;;-0.39;93.78
60087;BME280;45960;53.630;55.972;2023-03-05T03:23:24;98827.66;;;-0.35;93.72
60087;BME280;45960;53.630;55.972;2023-03-05T03:24:26;98818.88;;;-0.34;93.78
60087;BME280;45960;53.630;55.972;2023-03-05T03:25:27;98829.34;;;-0.34;93.80
60087;BME280;45960;53.630;55.972;2023-03-05T03:26:28;98830.28;;;-0.35;93.75
60087;BME280;45960;53.630;55.972;2023-03-05T03:27:30;98818.88;;;-0.34;93.92
60087;BME280;45960;53.630;55.972;2023-03-05T03:28:31;98822.28;;;-0.32;94.06
60087;BME280;45960;53.630;55.972;2023-03-05T03:29:32;98825.69;;;-0.30;94.12
60087;BME280;45960;53.630;55.972;2023-03-05T03:30:33;98822.13;;;-0.29;94.01
60087;BME280;45960;53.630;55.972;2023-03-05T03:31:34;98823.88;;;-0.28;94.20
60087;BME280;45960;53.630;55.972;2023-03-05T03:32:35;98814.13;;;-0.26;94.07
60087;BME280;45960;53.630;55.972;2023-03-05T03:33:36;98816.88;;;-0.29;94.10
60087;BME280;45960;53.630;55.972;2023-03-05T03:34:37;98818.63;;;-0.28;94.59
60087;BME280;45960;53.630;55.972;2023-03-05T03:35:38;98824.72;;;-0.27;94.23
60087;BME280;45960;53.630;55.972;2023-03-05T03:36:43;98822.94;;;-0.27;94.38
60087;BME280;45960;53.630;55.972;2023-03-05T03:37:44;98826.41;;;-0.26;94.42
60087;BME280;45960;53.630;55.972;2023-03-05T03:38:46;98814.13;;;-0.26;94.71
60087;BME280;45960;53.630;55.972;2023-03-05T03:39:48;98832.34;;;-0.23;94.56
60087;BME280;45960;53.630;55.972;2023-03-05T03:41:15;98828.03;;;-0.24;94.73
60087;BME280;45960;53.630;55.972;2023-03-05T03:42:17;98811.38;;;-0.23;94.69
60087;BME280;45960;53.630;55.972;2023-03-05T03:43:18;98813.94;;;-0.21;94.81
60087;BME280;45960;53.630;55.972;2023-03-05T03:44:20;98813.09;;;-0.21;94.62
60087;BME280;45960;53.630;55.972;2023-03-05T03:45:21;98810.31;;;-0.18;94.91
60087;BME280;45960;53.630;55.972;2023-03-05T03:46:22;98812.09;;;-0.19;95.00
60087;BME280;45960;53.630;55.972;2023-03-05T03:47:23;98802.44;;;-0.18;94.98
60087;BME280;45960;53.630;55.972;2023-03-05T03:48:24;98798.59;;;-0.11;94.99
60087;BME280;45960;53.630;55.972;2023-03-05T03:49:25;98809.97;;;-0.11;94.93
60087;BME280;45960;53.630;55.972;2023-03-05T03:50:26;98808.25;;;-0.12;95.01
60087;BME280;45960;53.630;55.972;2023-03-05T03:51:28;98813.50;;;-0.12;95.15
60087;BME280;45960;53.630;55.972;2023-03-05T03:52:29;98812.66;;;-0.12;95.32
60087;BME280;45960;53.630;55.972;2023-03-05T03:53:30;98809.09;;;-0.11;95.34
60087;BME280;45960;53.630;55.972;2023-03-05T03:54:32;98813.38;;;-0.09;95.22
60087;BME280;45960;53.630;55.972;2023-03-05T03:55:34;98811.63;;;-0.08;95.39
60087;BME280;45960;53.630;55.972;2023-03-05T03:56:35;98819.50;;;-0.08;95.42
60087;BME280;45960;53.630;55.972;2023-03-05T03:57:36;98819.34;;;-0.05;95.51
60087;BME280;45960;53.630;55.972;2023-03-05T03:58:37;98820.19;;;-0.05;95.41
60087;BME280;45960;53.630;55.972;2023-03-05T03:59:38;98811.47;;;-0.05;95.51
60087;BME280;45960;53.630;55.972;2023-03-05T04:00:40;98812.25;;;-0.03;95.71
60087;BME280;45960;53.630;55.972;2023-03-05T04:01:41;98817.38;;;0.00;95.49
60087;BME280;45960;53.630;55.972;2023-03-05T04:02:43;98806.00;;;-0.01;95.85
60087;BME280;45960;53.630;55.972;2023-03-05T04:03:44;98805.00;;;0.02;95.67
60087;BME280;45960;53.630;55.972;2023-03-05T04:04:46;98803.16;;;0.04;95.76
60087;BME280;45960;53.630;55.972;2023-03-05T04:05:47;98808.44;;;0.04;95.81
60087;BME280;45960;53.630;55.972;2023-03-05T04:06:48;98805.66;;;0.07;95.84
60087;BME280;45960;53.630;55.972;2023-03-05T04:07:49;98809.06;;;0.09;95.79
60087;BME280;45960;53.630;55.972;2023-03-05T04:08:50;98816.81;;;0.12;95.90
60087;BME280;45960;53.630;55.972;2023-03-05T04:09:51;98812.41;;;0.13;95.74
60087;BME280;45960;53.630;55.972;2023-03-05T04:10:52;98806.44;;;0.09;95.59
60087;BME280;45960;53.630;55.972;2023-03-05T04:11:53;98813.38;;;0.10;95.66
60087;BME280;45960;53.630;55.972;2023-03-05T04:12:54;98809.84;;;0.11;95.73
60087;BME280;45960;53.630;55.972;2023-03-05T04:13:55;98802.19;;;0.07;95.74
60087;BME280;45960;53.630;55.972;2023-03-05T04:14:56;98809.84;;;0.11;95.97
60087;BME280;45960;53.630;55.972;2023-03-05T04:15:57;98815.13;;;0.11;95.90
60087;BME280;45960;53.630;55.972;2023-03-05T04:16:58;98827.31;;;0.12;95.81
60087;BME280;45960;53.630;55.972;2023-03-05T04:18:00;98816.81;;;0.12;95.76
60087;BME280;45960;53.630;55.972;2023-03-05T04:19:01;98822.06;;;0.12;95.94
60087;BME280;45960;53.630;55.972;2023-03-05T04:20:03;98816.72;;;0.14;96.03
60087;BME280;45960;53.630;55.972;2023-03-05T04:21:05;98821.06;;;0.15;95.90
60087;BME280;45960;53.630;55.972;2023-03-05T04:22:10;98818.34;;;0.16;95.85
60087;BME280;45960;53.630;55.972;2023-03-05T04:23:12;98816.50;;;0.18;96.20
60087;BME280;45960;53.630;55.972;2023-03-05T04:24:13;98828.72;;;0.19;96.14
60087;BME280;45960;53.630;55.972;2023-03-05T04:25:14;98816.66;;;0.15;95.81
60087;BME280;45960;53.630;55.972;2023-03-05T04:26:16;98816.81;;;0.12;95.95
60087;BME280;45960;53.630;55.972;2023-03-05T04:27:17;98818.50;;;0.13;96.21
60087;BME280;45960;53.630;55.972;2023-03-05T04:28:18;98821.91;;;0.15;96.08
60087;BME280;45960;53.630;55.972;2023-03-05T04:29:19;98823.59;;;0.16;96.24
60087;BME280;45960;53.630;55.972;2023-03-05T04:30:20;98832.56;;;0.12;95.92
60087;BME280;45960;53.630;55.972;2023-03-05T04:31:21;98830.97;;;0.08;95.97
60087;BME280;45960;53.630;55.972;2023-03-05T04:32:23;98836.22;;;0.08;96.11
60087;BME280;45960;53.630;55.972;2023-03-05T04:33:29;98824.97;;;0.06;96.33
60087;BME280;45960;53.630;55.972;2023-03-05T04:34:30;98829.84;;;0.14;96.30
60087;BME280;45960;53.630;55.972;2023-03-05T04:35:32;98830.59;;;0.17;96.58
60087;BME280;45960;53.630;55.972;2023-03-05T04:36:34;98839.09;;;0.22;96.60
60087;BME280;45960;53.630;55.972;2023-03-05T04:37:35;98837.09;;;0.28;96.50
60087;BME280;45960;53.630;55.972;2023-03-05T04:38:36;98831.84;;;0.28;96.33
60087;BME280;45960;53.630;55.972;2023-03-05T04:39:37;98837.25;;;0.25;96.29
60087;BME280;45960;53.630;55.972;2023-03-05T04:40:38;98832.72;;;0.28;96.36
60087;BME280;45960;53.630;55.972;2023-03-05T04:41:39;98831.78;;;0.29;96.40
60087;BME280;45960;53.630;55.972;2023-03-05T04:42:40;98834.31;;;0.31;96.33
60087;BME280;45960;53.630;55.972;2023-03-05T04:43:41;98841.94;;;0.37;96.17
60087;BME280;45960;53.630;55.972;2023-03-05T04:44:42;98834.13;;;0.35;96.25
60087;BME280;45960;53.630;55.972;2023-03-05T04:45:43;98836.75;;;0.35;95.97
60087;BME280;45960;53.630;55.972;2023-03-05T04:46:44;98834.97;;;0.36;95.99
60087;BME280;45960;53.630;55.972;2023-03-05T04:47:45;98835.09;;;0.33;96.22
60087;BME280;45960;53.630;55.972;2023-03-05T04:48:46;98826.44;;;0.31;95.74
60087;BME280;45960;53.630;55.972;2023-03-05T04:49:47;98829.84;;;0.33;96.03
60087;BME280;45960;53.630;55.972;2023-03-05T04:50:48;98836.84;;;0.34;96.04
60087;BME280;45960;53.630;55.972;2023-03-05T04:51:49;98838.53;;;0.35;95.98
60087;BME280;45960;53.630;55.972;2023-03-05T04:52:51;98844.56;;;0.37;95.92
60087;BME280;45960;53.630;55.972;2023-03-05T04:53:52;98840.22;;;0.36;95.98
60087;BME280;45960;53.630;55.972;2023-03-05T04:54:53;98843.63;;;0.38;96.07
60087;BME280;45960;53.630;55.972;2023-03-05T04:55:54;98828.94;;;0.34;96.08
60087;BME280;45960;53.630;55.972;2023-03-05T04:56:55;98836.53;;;0.40;95.98
60087;BME280;45960;53.630;55.972;2023-03-05T04:57:56;98836.53;;;0.40;95.96
60087;BME280;45960;53.630;55.972;2023-03-05T04:58:58;98842.63;;;0.40;96.14
60087;BME280;45960;53.630;55.972;2023-03-05T04:59:59;98854.00;;;0.41;96.05
60087;BME280;45960;53.630;55.972;2023-03-05T05:01:01;98854.94;;;0.40;95.92
60087;BME280;45960;53.630;55.972;2023-03-05T05:02:03;98862.09;;;0.36;95.83
60087;BME280;45960;53.630;55.972;2023-03-05T05:03:04;98858.84;;;0.31;95.96
60087;BME280;45960;53.630;55.972;2023-03-05T05:04:06;98860.38;;;0.35;95.93
60087;BME280;45960;53.630;55.972;2023-03-05T05:05:08;98859.41;;;0.38;96.04
60087;BME280;45960;53.630;55.972;2023-03-05T05:06:10;98862.81;;;0.40;96.22
60087;BME280;45960;53.630;55.972;2023-03-05T05:07:11;98860.03;;;0.43;96.02
60087;BME280;45960;53.630;55.972;2023-03-05T05:08:12;98856.56;;;0.42;96.17
60087;BME280;45960;53.630;55.972;2023-03-05T05:09:13;98852.31;;;0.40;95.88
60087;BME280;45960;53.630;55.972;2023-03-05T05:10:15;98855.69;;;0.42;96.25
60087;BME280;45960;53.630;55.972;2023-03-05T05:11:16;98851.50;;;0.38;95.88
60087;BME280;45960;53.630;55.972;2023-03-05T05:12:18;98841.94;;;0.37;96.07
60087;BME280;45960;53.630;55.972;2023-03-05T05:13:19;98842.69;;;0.39;96.13
60087;BME280;45960;53.630;55.972;2023-03-05T05:14:20;98838.38;;;0.38;96.15
60087;BME280;45960;53.630;55.972;2023-03-05T05:15:21;98835.75;;;0.38;96.18
60087;BME280;45960;53.630;55.972;2023-03-05T05:16:22;98827.03;;;0.37;96.33
60087;BME280;45960;53.630;55.972;2023-03-05T05:17:23;98831.44;;;0.37;96.39
60087;BME280;45960;53.630;55.972;2023-03-05T05:18:24;98840.06;;;0.39;96.43
60087;BME280;45960;53.630;55.972;2023-03-05T05:19:26;98841.78;;;0.40;96.47
60087;BME280;45960;53.630;55.972;2023-03-05T05:20:27;98847.94;;;0.39;96.31
60087;BME280;45960;53.630;55.972;2023-03-05T05:21:28;98840.22;;;0.36;96.25
60087;BME280;45960;53.630;55.972;2023-03-05T05:22:29;98840.06;;;0.39;96.39
60087;BME280;45960;53.630;55.972;2023-03-05T05:23:30;98838.09;;;0.44;96.52
60087;BME280;45960;53.630;55.972;2023-03-05T05:24:31;98839.81;;;0.45;96.54
60087;BME280;45960;53.630;55.972;2023-03-05T05:25:32;98844.19;;;0.44;96.47
60087;BME280;45960;53.630;55.972;2023-03-05T05:26:33;98853.69;;;0.47;96.54